Time;durP1;ratioP1;P1;durP2;ratioP2;P2;SDS_P1;SDS_P2;PMS_P1;PMS_P2;Temp;Humidity;BMP_temperature;BMP_pressure;BME280_temperature;BME280_humidity;BME280_pressure;Samples;Min_cycle;Max_cycle;Signal;HPM_P1;HPM_P2
2023/12/17 00:01:24;;;;;;;24.73;21.15;;;8.50;99.90;;;;;;5028912;28;20220;-86
2023/12/17 00:03:49;;;;;;;29.13;21.58;;;8.60;99.90;;;;;;5063432;28;20222;-87
2023/12/17 00:06:16;;;;;;;24.00;19.05;;;8.60;99.90;;;;;;5062265;28;20313;-86
2023/12/17 00:08:42;;;;;;;25.33;21.70;;;8.30;99.90;;;;;;5046068;28;20028;-86
2023/12/17 00:11:09;;;;;;;24.45;20.98;;;8.60;99.90;;;;;;5062420;28;20100;-86
2023/12/17 00:13:36;;;;;;;23.75;18.67;;;8.50;99.90;;;;;;5062350;28;20048;-86
2023/12/17 00:16:05;;;;;;;22.23;19.60;;;8.60;99.90;;;;;;5062487;28;20029;-86
2023/12/17 00:18:31;;;;;;;18.63;14.87;;;8.60;99.90;;;;;;5062389;28;20167;-86
2023/12/17 00:20:57;;;;;;;23.90;20.88;;;8.60;99.90;;;;;;5041745;28;20030;-86
2023/12/17 00:23:23;;;;;;;29.73;18.52;;;8.60;99.90;;;;;;5042453;28;20013;-86
2023/12/17 00:25:49;;;;;;;22.80;18.23;;;8.90;99.90;;;;;;5042116;28;20183;-86
2023/12/17 00:28:15;;;;;;;26.10;20.08;;;8.60;99.90;;;;;;5042351;28;20005;-86
2023/12/17 00:30:41;;;;;;;28.30;18.65;;;8.60;99.90;;;;;;5043033;28;20105;-86
2023/12/17 00:33:06;;;;;;;27.40;21.15;;;8.60;99.90;;;;;;5044531;28;20026;-85
2023/12/17 00:35:32;;;;;;;30.48;21.35;;;8.60;99.90;;;;;;5046101;28;20088;-86
2023/12/17 00:37:58;;;;;;;23.65;19.10;;;8.60;99.90;;;;;;5046394;28;20290;-87
2023/12/17 00:40:24;;;;;;;30.55;17.52;;;8.60;99.90;;;;;;5055514;28;20021;-86
2023/12/17 00:42:50;;;;;;;23.88;20.58;;;8.60;99.90;;;;;;5066075;28;20024;-86
2023/12/17 00:45:16;;;;;;;31.33;20.08;;;8.60;99.90;;;;;;5066366;28;20335;-86
2023/12/17 00:47:41;;;;;;;23.05;17.13;;;8.70;99.90;;;;;;5083006;28;20020;-86
2023/12/17 00:50:08;;;;;;;23.75;19.40;;;8.70;99.90;;;;;;5082465;28;20032;-86
2023/12/17 00:52:34;;;;;;;21.95;19.58;;;8.70;99.90;;;;;;5065469;28;20302;-86
2023/12/17 00:55:00;;;;;;;23.73;21.05;;;8.70;99.90;;;;;;5065708;28;20079;-86
2023/12/17 00:57:26;;;;;;;34.92;22.27;;;8.70;99.90;;;;;;5082653;28;20316;-86
2023/12/17 00:59:51;;;;;;;21.52;19.10;;;8.70;99.90;;;;;;5065314;28;20217;-86
2023/12/17 01:02:18;;;;;;;21.05;18.23;;;;;;;;;;5048894;28;20021;-86
2023/12/17 01:04:44;;;;;;;21.45;17.73;;;8.70;99.90;;;;;;5049006;28;20329;-86
2023/12/17 01:07:10;;;;;;;26.10;20.02;;;8.70;99.90;;;;;;5049218;28;20017;-86
2023/12/17 01:09:36;;;;;;;25.23;18.00;;;8.70;99.90;;;;;;5048906;28;20081;-86
2023/12/17 01:12:05;;;;;;;20.30;18.23;;;8.70;99.90;;;;;;5048654;28;20037;-88
2023/12/17 01:14:34;;;;;;;24.53;19.80;;;8.70;99.90;;;;;;5065616;28;20100;-87
2023/12/17 01:17:04;;;;;;;22.85;19.38;;;8.80;99.90;;;;;;5049397;28;20035;-86
2023/12/17 01:19:31;;;;;;;20.17;18.00;;;8.80;99.90;;;;;;5065099;28;20029;-86
2023/12/17 01:21:57;;;;;;;19.58;17.02;;;8.90;99.90;;;;;;5066616;28;20088;-86
2023/12/17 01:24:23;;;;;;;22.10;19.60;;;8.80;99.90;;;;;;5070208;28;20025;-85
2023/12/17 01:26:49;;;;;;;24.42;19.75;;;8.80;99.90;;;;;;5049207;28;20025;-86
2023/12/17 01:29:16;;;;;;;22.77;19.83;;;8.80;99.90;;;;;;5031835;28;20096;-86
2023/12/17 01:31:42;;;;;;;19.30;17.30;;;8.70;99.90;;;;;;5028764;28;20380;-88
2023/12/17 01:34:08;;;;;;;24.23;18.65;;;8.80;99.90;;;;;;5046559;28;20029;-86
2023/12/17 01:36:34;;;;;;;23.77;17.40;;;8.70;99.90;;;;;;5046263;28;20014;-86
2023/12/17 01:38:59;;;;;;;24.02;18.15;;;8.80;99.90;;;;;;5044938;28;20053;-86
2023/12/17 01:41:25;;;;;;;24.75;19.30;;;8.80;99.90;;;;;;5062612;28;20016;-87
2023/12/17 01:43:51;;;;;;;24.70;18.30;;;;;;;;;;5064619;28;20713;-87
2023/12/17 01:46:18;;;;;;;21.42;18.50;;;8.80;99.90;;;;;;5064787;28;20174;-87
2023/12/17 01:48:45;;;;;;;21.05;18.08;;;8.80;99.90;;;;;;5064659;28;20356;-86
2023/12/17 01:51:11;;;;;;;26.60;17.63;;;8.80;99.90;;;;;;5048151;28;20032;-86
2023/12/17 01:53:37;;;;;;;22.95;19.45;;;8.70;99.90;;;;;;5064719;28;20029;-86
2023/12/17 01:56:03;;;;;;;16.20;14.60;;;9.00;99.90;;;;;;5064792;28;20013;-86
2023/12/17 01:58:30;;;;;;;24.38;18.35;;;8.80;99.90;;;;;;5056250;28;20302;-86
2023/12/17 02:00:56;;;;;;;18.42;16.50;;;8.80;99.90;;;;;;5058110;28;20017;-87
2023/12/17 02:03:22;;;;;;;18.88;16.10;;;8.90;99.90;;;;;;5064287;28;20044;-86
2023/12/17 02:05:48;;;;;;;16.05;14.25;;;8.80;99.90;;;;;;5048024;28;20175;-86
2023/12/17 02:08:14;;;;;;;22.38;17.60;;;8.90;99.90;;;;;;5048237;28;20025;-86
2023/12/17 02:10:40;;;;;;;20.67;16.67;;;8.80;99.90;;;;;;5047454;28;20045;-86
2023/12/17 02:13:10;;;;;;;18.85;16.88;;;8.80;99.90;;;;;;5063830;28;20025;-88
2023/12/17 02:15:38;;;;;;;18.20;15.15;;;8.80;99.90;;;;;;5065413;28;20016;-87
2023/12/17 02:18:05;;;;;;;19.17;15.05;;;8.90;99.90;;;;;;5064254;28;20104;-87
2023/12/17 02:20:31;;;;;;;16.73;15.07;;;8.90;99.90;;;;;;5064073;28;20329;-86
2023/12/17 02:23:01;;;;;;;16.10;13.48;;;8.80;99.90;;;;;;5047688;28;20044;-86
2023/12/17 02:25:27;;;;;;;20.02;14.88;;;8.80;99.90;;;;;;5065206;28;20021;-86
2023/12/17 02:27:56;;;;;;;14.48;12.98;;;8.90;99.90;;;;;;5030946;28;20028;-86
2023/12/17 02:30:22;;;;;;;16.63;14.70;;;8.90;99.90;;;;;;5030590;28;20040;-86
2023/12/17 02:32:49;;;;;;;14.10;12.65;;;8.80;99.90;;;;;;5063765;28;20217;-86
2023/12/17 02:35:15;;;;;;;13.02;11.52;;;8.90;99.90;;;;;;5030846;28;20056;-86
2023/12/17 02:37:41;;;;;;;18.85;13.90;;;8.90;99.90;;;;;;5063712;28;20290;-87
2023/12/17 02:40:07;;;;;;;13.48;12.00;;;8.90;99.90;;;;;;5063203;28;20218;-86
2023/12/17 02:42:33;;;;;;;16.90;15.18;;;8.90;99.90;;;;;;5030342;28;20028;-86
2023/12/17 02:44:59;;;;;;;18.70;16.02;;;8.90;99.90;;;;;;5063580;28;20028;-87
2023/12/17 02:47:25;;;;;;;15.35;12.50;;;8.80;99.90;;;;;;5043303;28;20029;-86
2023/12/17 02:49:51;;;;;;;16.52;14.85;;;8.80;99.90;;;;;;5049283;28;20337;-85
2023/12/17 02:52:18;;;;;;;13.10;11.80;;;8.80;99.90;;;;;;5076386;28;20032;-85
2023/12/17 02:54:44;;;;;;;15.85;12.55;;;8.80;99.90;;;;;;5062635;28;20301;-85
2023/12/17 02:57:10;;;;;;;12.70;11.40;;;8.80;99.90;;;;;;5030479;28;20091;-86
2023/12/17 02:59:36;;;;;;;12.40;10.98;;;8.90;99.90;;;;;;5053822;28;20206;-85
2023/12/17 03:02:02;;;;;;;12.68;11.32;;;8.80;99.90;;;;;;5026714;28;20021;-86
2023/12/17 03:04:28;;;;;;;15.23;12.48;;;8.80;99.90;;;;;;5042785;28;20048;-86
2023/12/17 03:06:53;;;;;;;13.75;12.30;;;8.80;99.90;;;;;;5047971;28;20044;-87
2023/12/17 03:09:19;;;;;;;13.57;12.18;;;8.80;99.90;;;;;;5041909;28;20029;-86
2023/12/17 03:11:45;;;;;;;11.05;10.02;;;8.80;99.90;;;;;;5042912;28;20381;-87
2023/12/17 03:14:11;;;;;;;11.25;10.05;;;8.80;99.90;;;;;;5059998;28;20029;-87
2023/12/17 03:16:37;;;;;;;14.07;11.73;;;8.80;99.90;;;;;;5056494;28;20424;-86
2023/12/17 03:19:03;;;;;;;13.63;12.27;;;;;;;;;;5063092;28;20025;-85
2023/12/17 03:21:29;;;;;;;11.50;10.30;;;8.80;99.90;;;;;;5080458;28;20043;-86
2023/12/17 03:23:55;;;;;;;12.48;11.38;;;8.80;99.90;;;;;;5066192;28;20328;-86
2023/12/17 03:26:21;;;;;;;14.23;12.70;;;8.70;99.90;;;;;;5066187;28;20301;-86
2023/12/17 03:28:47;;;;;;;10.93;9.82;;;8.80;99.90;;;;;;5066243;28;20021;-85
2023/12/17 03:31:16;;;;;;;11.60;10.40;;;8.70;99.90;;;;;;5083175;28;20047;-87
2023/12/17 03:33:43;;;;;;;12.13;10.50;;;8.80;99.90;;;;;;5083766;28;20067;-86
2023/12/17 03:36:13;;;;;;;10.55;9.55;;;8.70;99.90;;;;;;5082928;28;20027;-85
2023/12/17 03:38:38;;;;;;;12.43;8.82;;;8.70;99.90;;;;;;5082271;28;20035;-87
2023/12/17 03:41:04;;;;;;;14.15;8.63;;;8.70;99.90;;;;;;5100088;28;20087;-86
2023/12/17 03:43:30;;;;;;;9.90;8.95;;;8.70;99.90;;;;;;5082532;28;20115;-86
2023/12/17 03:45:56;;;;;;;11.02;9.95;;;8.70;99.90;;;;;;5062430;28;20294;-86
2023/12/17 03:48:22;;;;;;;13.38;9.00;;;8.70;99.90;;;;;;5062299;28;20372;-86
2023/12/17 03:50:48;;;;;;;9.32;8.43;;;;;;;;;;5054856;28;20060;-86
2023/12/17 03:53:14;;;;;;;11.02;9.48;;;8.70;99.90;;;;;;5062349;28;20025;-86
2023/12/17 03:55:39;;;;;;;12.05;10.85;;;8.70;99.90;;;;;;5079082;28;20309;-86
2023/12/17 03:58:05;;;;;;;9.38;8.27;;;8.60;99.90;;;;;;5079017;28;20333;-85
2023/12/17 04:00:31;;;;;;;13.35;10.55;;;;;;;;;;5066832;28;20039;-87
2023/12/17 04:02:58;;;;;;;9.82;8.82;;;;;;;;;;5062134;28;20032;-86
2023/12/17 04:05:26;;;;;;;12.32;9.55;;;8.70;99.90;;;;;;5078721;28;20013;-86
2023/12/17 04:07:53;;;;;;;9.52;8.57;;;8.60;99.90;;;;;;5062252;28;20052;-87
2023/12/17 04:10:19;;;;;;;10.98;9.60;;;8.50;99.90;;;;;;5061295;28;20325;-86
2023/12/17 04:12:45;;;;;;;12.60;10.13;;;8.60;99.90;;;;;;5061497;28;20259;-85
2023/12/17 04:15:11;;;;;;;10.02;9.02;;;8.60;99.90;;;;;;5060895;28;20009;-85
2023/12/17 04:17:37;;;;;;;10.73;8.75;;;8.60;99.90;;;;;;5062624;28;20024;-85
2023/12/17 04:20:03;;;;;;;11.50;9.02;;;8.50;99.90;;;;;;5066939;28;20256;-87
2023/12/17 04:22:29;;;;;;;12.55;9.80;;;8.60;99.90;;;;;;5078441;28;20020;-87
2023/12/17 04:24:55;;;;;;;13.15;10.38;;;8.50;99.90;;;;;;5028454;28;20044;-84
2023/12/17 04:27:21;;;;;;;12.80;11.45;;;;;;;;;;5061741;28;20096;-85
2023/12/17 04:29:47;;;;;;;12.05;10.85;;;8.50;99.90;;;;;;5061472;28;20012;-86
2023/12/17 04:32:13;;;;;;;13.13;11.43;;;8.40;99.90;;;;;;5062806;28;20334;-86
2023/12/17 04:34:38;;;;;;;11.88;10.05;;;8.40;99.90;;;;;;5063121;28;20098;-85
2023/12/17 04:37:04;;;;;;;10.85;9.82;;;8.40;99.90;;;;;;5063059;28;20078;-84
2023/12/17 04:39:30;;;;;;;10.60;9.57;;;8.40;99.90;;;;;;5046084;28;20040;-85
2023/12/17 04:41:56;;;;;;;11.70;8.82;;;8.40;99.90;;;;;;5082086;28;20308;-86
2023/12/17 04:44:22;;;;;;;16.38;10.52;;;8.40;99.90;;;;;;5081481;28;20020;-86
2023/12/17 04:46:48;;;;;;;14.18;12.43;;;8.40;99.90;;;;;;5065353;28;20091;-86
2023/12/17 04:49:13;;;;;;;10.57;9.32;;;8.40;99.90;;;;;;5075535;28;20325;-87
2023/12/17 04:51:40;;;;;;;10.77;9.65;;;8.40;99.90;;;;;;5044349;28;20047;-86
2023/12/17 04:54:05;;;;;;;13.18;10.60;;;8.30;99.90;;;;;;5056660;28;20037;-85
2023/12/17 04:56:31;;;;;;;15.55;12.70;;;8.30;99.90;;;;;;5042269;28;20032;-85
2023/12/17 04:58:57;;;;;;;10.20;9.18;;;8.40;99.90;;;;;;5041916;28;20344;-85
2023/12/17 05:01:23;;;;;;;12.13;9.98;;;8.30;99.90;;;;;;5037592;28;20025;-85
2023/12/17 05:03:49;;;;;;;16.23;11.00;;;;;;;;;;5058303;28;20032;-86
2023/12/17 05:06:15;;;;;;;14.02;9.32;;;8.30;99.90;;;;;;5025419;28;20060;-86
2023/12/17 05:08:40;;;;;;;14.82;13.18;;;8.30;99.90;;;;;;5041852;28;20018;-84
2023/12/17 05:11:06;;;;;;;11.30;9.77;;;8.30;99.90;;;;;;5039134;28;20253;-85
2023/12/17 05:13:32;;;;;;;18.02;10.25;;;8.30;99.90;;;;;;5061794;28;20051;-85
2023/12/17 05:15:58;;;;;;;12.23;8.70;;;8.30;99.90;;;;;;5062547;28;20052;-86
2023/12/17 05:18:24;;;;;;;12.02;9.75;;;8.30;99.90;;;;;;5062754;28;20292;-85
2023/12/17 05:20:49;;;;;;;9.68;8.60;;;8.20;99.90;;;;;;5064037;28;20429;-85
2023/12/17 05:23:15;;;;;;;14.32;11.13;;;8.20;99.90;;;;;;5053248;28;20017;-85
2023/12/17 05:25:41;;;;;;;11.98;9.75;;;8.20;99.90;;;;;;5028749;28;20329;-86
2023/12/17 05:28:09;;;;;;;14.48;13.10;;;8.20;99.90;;;;;;5028402;28;20033;-85
2023/12/17 05:30:35;;;;;;;15.02;10.77;;;8.20;99.90;;;;;;5047921;28;20049;-86
2023/12/17 05:33:02;;;;;;;13.05;9.95;;;8.20;99.90;;;;;;5065027;28;20024;-84
2023/12/17 05:35:27;;;;;;;10.57;9.40;;;8.20;99.90;;;;;;5065005;28;20056;-85
2023/12/17 05:37:53;;;;;;;12.23;9.48;;;8.20;99.90;;;;;;5048111;28;20025;-85
2023/12/17 05:40:19;;;;;;;10.95;9.48;;;8.10;99.90;;;;;;5081274;28;20329;-85
2023/12/17 05:42:45;;;;;;;14.43;10.60;;;8.10;99.90;;;;;;5064786;28;20005;-85
2023/12/17 05:45:11;;;;;;;14.35;12.57;;;8.10;99.90;;;;;;5064674;28;20032;-85
2023/12/17 05:47:38;;;;;;;15.02;11.50;;;8.00;99.90;;;;;;5064560;28;20043;-87
2023/12/17 05:50:04;;;;;;;13.45;10.07;;;8.00;99.90;;;;;;5064104;28;20036;-87
2023/12/17 05:52:30;;;;;;;16.90;12.68;;;8.00;99.90;;;;;;5048048;28;20012;-85
2023/12/17 05:54:56;;;;;;;13.80;10.55;;;8.00;99.90;;;;;;5064563;28;20048;-85
2023/12/17 05:57:21;;;;;;;10.98;9.95;;;8.00;99.90;;;;;;5064917;28;20096;-85
2023/12/17 05:59:47;;;;;;;13.82;12.38;;;7.90;99.90;;;;;;5032903;28;20242;-85
2023/12/17 06:02:13;;;;;;;11.63;10.43;;;8.00;99.90;;;;;;5031112;28;20027;-85
2023/12/17 06:04:39;;;;;;;11.52;9.93;;;7.90;99.90;;;;;;5080632;28;20029;-85
2023/12/17 06:07:04;;;;;;;15.20;11.02;;;7.90;99.90;;;;;;5064342;28;20183;-84
2023/12/17 06:09:31;;;;;;;14.48;12.93;;;7.90;99.90;;;;;;5063476;28;20305;-85
2023/12/17 06:12:00;;;;;;;10.98;9.95;;;7.90;99.90;;;;;;5060154;28;20045;-86
2023/12/17 06:14:27;;;;;;;11.77;9.18;;;7.80;99.90;;;;;;5056501;28;20025;-85
2023/12/17 06:16:53;;;;;;;12.18;10.18;;;7.90;99.90;;;;;;5064413;28;20025;-86
2023/12/17 06:19:19;;;;;;;12.93;10.05;;;7.90;99.90;;;;;;5046304;28;20059;-93
2023/12/17 06:21:45;;;;;;;11.57;10.38;;;;;;;;;;5059508;28;20023;-85
2023/12/17 06:24:11;;;;;;;13.27;9.02;;;7.90;99.90;;;;;;5067446;28;20601;-84
2023/12/17 06:26:37;;;;;;;10.90;9.57;;;7.90;99.90;;;;;;5062964;28;20009;-85
2023/12/17 06:29:03;;;;;;;12.40;9.60;;;7.90;99.90;;;;;;5069442;28;20297;-84
2023/12/17 06:31:30;;;;;;;11.00;8.75;;;7.80;99.90;;;;;;5080895;28;20028;-84
2023/12/17 06:33:56;;;;;;;13.02;8.75;;;7.80;99.90;;;;;;5063051;28;20060;-85
2023/12/17 06:36:23;;;;;;;10.57;9.35;;;7.90;99.90;;;;;;5052301;28;20202;-84
2023/12/17 06:38:49;;;;;;;9.77;8.82;;;7.90;99.90;;;;;;5063001;28;20028;-84
2023/12/17 06:41:14;;;;;;;15.40;11.43;;;7.90;99.90;;;;;;5061554;28;20021;-87
2023/12/17 06:43:40;;;;;;;11.90;9.25;;;7.90;99.90;;;;;;5062655;28;20021;-85
2023/12/17 06:46:07;;;;;;;10.00;9.07;;;7.80;99.90;;;;;;5062945;28;20031;-88
2023/12/17 06:48:36;;;;;;;14.38;8.73;;;7.80;99.90;;;;;;5056376;28;20025;-85
2023/12/17 06:51:03;;;;;;;8.50;7.63;;;7.80;99.90;;;;;;5039985;28;20082;-85
2023/12/17 06:53:29;;;;;;;12.05;9.35;;;7.80;99.90;;;;;;5068677;28;20016;-85
2023/12/17 06:55:55;;;;;;;14.95;10.27;;;7.70;99.90;;;;;;5063593;28;20066;-85
2023/12/17 06:58:21;;;;;;;11.85;9.48;;;7.70;99.90;;;;;;5044961;28;20247;-84
2023/12/17 07:00:47;;;;;;;10.30;8.93;;;7.80;99.90;;;;;;5045100;28;20023;-85
2023/12/17 07:03:18;;;;;;;13.93;8.27;;;7.80;99.90;;;;;;5062438;28;20028;-84
2023/12/17 07:05:44;;;;;;;11.95;9.90;;;7.70;99.90;;;;;;5063623;28;20301;-84
2023/12/17 07:08:10;;;;;;;11.00;9.65;;;7.70;99.90;;;;;;5068236;28;20028;-85
2023/12/17 07:10:36;;;;;;;10.18;9.20;;;7.70;99.90;;;;;;5059129;28;20049;-84
2023/12/17 07:13:03;;;;;;;14.65;9.73;;;7.70;99.90;;;;;;5062678;28;20373;-86
2023/12/17 07:15:29;;;;;;;10.35;9.32;;;7.60;99.90;;;;;;5046272;28;20112;-85
2023/12/17 07:17:55;;;;;;;12.85;8.68;;;7.60;99.90;;;;;;5078804;28;20071;-85
2023/12/17 07:20:21;;;;;;;10.15;9.25;;;7.60;99.90;;;;;;5062198;28;20052;-83
2023/12/17 07:22:48;;;;;;;11.32;8.27;;;7.60;99.90;;;;;;5065628;28;20075;-85
2023/12/17 07:25:15;;;;;;;10.45;7.93;;;7.60;99.90;;;;;;5056264;28;20028;-83
2023/12/17 07:27:41;;;;;;;12.77;9.35;;;7.50;99.90;;;;;;5043256;28;20017;-84
2023/12/17 07:30:09;;;;;;;12.98;10.65;;;7.40;99.90;;;;;;5047100;28;20023;-85
2023/12/17 07:32:35;;;;;;;15.13;11.80;;;7.40;99.90;;;;;;5061581;28;20009;-84
2023/12/17 07:35:03;;;;;;;13.50;9.60;;;7.40;99.90;;;;;;5041872;28;20101;-85
2023/12/17 07:37:28;;;;;;;12.05;9.73;;;7.40;99.90;;;;;;5056571;28;20036;-86
2023/12/17 07:39:55;;;;;;;13.00;9.73;;;7.40;99.90;;;;;;5054551;28;20032;-84
2023/12/17 07:42:21;;;;;;;11.50;10.15;;;7.40;99.90;;;;;;5061251;28;20009;-83
2023/12/17 07:44:47;;;;;;;10.68;9.70;;;7.70;99.90;;;;;;5027350;28;20024;-84
2023/12/17 07:47:13;;;;;;;10.80;9.45;;;;;;;;;;5060935;28;20094;-84
2023/12/17 07:49:39;;;;;;;12.02;10.93;;;7.30;99.90;;;;;;5077920;28;20032;-84
2023/12/17 07:52:04;;;;;;;15.82;10.55;;;7.30;99.90;;;;;;5045279;28;20032;-83
2023/12/17 07:54:32;;;;;;;15.32;11.77;;;7.20;99.90;;;;;;5058502;28;20017;-83
2023/12/17 07:56:58;;;;;;;25.10;10.95;;;7.30;99.90;;;;;;5057344;28;20021;-84
2023/12/17 07:59:25;;;;;;;14.27;12.73;;;7.30;99.90;;;;;;5052184;28;20028;-85
2023/12/17 08:01:51;;;;;;;17.58;11.85;;;7.30;99.90;;;;;;5057436;28;20036;-83
2023/12/17 08:04:18;;;;;;;12.98;11.63;;;7.20;99.90;;;;;;5059492;28;20021;-84
2023/12/17 08:06:44;;;;;;;18.05;16.13;;;7.10;99.90;;;;;;5044692;28;20047;-84
2023/12/17 08:09:11;;;;;;;17.48;13.85;;;7.10;99.90;;;;;;5053314;28;20363;-83
2023/12/17 08:11:41;;;;;;;17.52;15.15;;;6.70;99.90;;;;;;5067502;28;20040;-85
2023/12/17 08:14:10;;;;;;;18.55;15.65;;;7.00;99.90;;;;;;5029807;28;20036;-83
2023/12/17 08:16:36;;;;;;;20.58;13.20;;;7.00;99.90;;;;;;5028838;28;20352;-84
2023/12/17 08:19:02;;;;;;;16.83;15.25;;;6.90;99.90;;;;;;5061256;28;20025;-83
2023/12/17 08:21:28;;;;;;;24.42;16.90;;;6.90;99.90;;;;;;5049424;28;20326;-83
2023/12/17 08:23:53;;;;;;;19.38;16.52;;;6.80;99.90;;;;;;5041075;28;20085;-85
2023/12/17 08:26:19;;;;;;;22.48;16.23;;;6.90;99.90;;;;;;5017441;28;20333;-83
2023/12/17 08:28:46;;;;;;;26.20;16.10;;;6.90;99.90;;;;;;5060959;28;20025;-84
2023/12/17 08:31:12;;;;;;;22.45;16.50;;;6.90;99.90;;;;;;5057993;28;20037;-84
2023/12/17 08:33:38;;;;;;;28.83;21.15;;;6.90;99.90;;;;;;5048747;28;20328;-83
2023/12/17 08:36:05;;;;;;;21.77;15.73;;;6.90;99.90;;;;;;5040848;28;20295;-84
2023/12/17 08:38:31;;;;;;;21.55;15.88;;;6.90;99.90;;;;;;5046442;28;20029;-84
2023/12/17 08:40:56;;;;;;;22.13;15.93;;;6.80;99.90;;;;;;5038756;28;20029;-83
2023/12/17 08:43:22;;;;;;;46.30;19.77;;;6.80;99.90;;;;;;5053239;28;20093;-84
2023/12/17 08:45:48;;;;;;;19.50;15.32;;;6.80;99.90;;;;;;5045062;28;20296;-84
2023/12/17 08:48:14;;;;;;;19.92;17.83;;;6.70;99.90;;;;;;5057607;28;20128;-84
2023/12/17 08:50:44;;;;;;;19.27;15.60;;;6.70;99.90;;;;;;5061342;28;20043;-83
2023/12/17 08:53:19;;;;;;;21.70;16.88;;;6.60;99.90;;;;;;5037428;28;20021;-83
2023/12/17 08:55:52;;;;;;;22.67;18.85;;;6.70;99.90;;;;;;5040482;28;20128;-83
2023/12/17 08:58:26;;;;;;;24.60;19.23;;;6.70;99.90;;;;;;5038697;28;20340;-83
2023/12/17 09:00:59;;;;;;;35.22;26.92;;;6.60;99.90;;;;;;5062800;28;20029;-84
2023/12/17 09:03:33;;;;;;;36.50;29.52;;;6.80;99.90;;;;;;5064986;28;20048;-84
2023/12/17 09:06:06;;;;;;;23.13;19.50;;;6.50;99.90;;;;;;5048836;28;20029;-85
2023/12/17 09:08:39;;;;;;;27.13;20.20;;;6.50;99.90;;;;;;5009323;28;20358;-83
2023/12/17 09:11:13;;;;;;;31.20;24.77;;;6.60;99.90;;;;;;5041046;28;20353;-84
2023/12/17 09:13:45;;;;;;;24.83;18.65;;;6.60;99.90;;;;;;5051007;28;20101;-86
2023/12/17 09:16:15;;;;;;;27.65;19.73;;;6.60;99.90;;;;;;5045504;28;20191;-83
2023/12/17 09:18:44;;;;;;;28.17;19.30;;;6.60;99.90;;;;;;5047584;28;20056;-84
2023/12/17 09:21:14;;;;;;;20.33;16.70;;;6.60;99.90;;;;;;5062062;28;20345;-84
2023/12/17 09:23:43;;;;;;;20.27;17.45;;;6.50;99.90;;;;;;5070724;28;20021;-86
2023/12/17 09:26:14;;;;;;;27.42;19.98;;;6.50;99.90;;;;;;5052807;28;20026;-85
2023/12/17 09:28:43;;;;;;;21.92;16.65;;;6.40;99.90;;;;;;5063857;28;20028;-84
2023/12/17 09:31:13;;;;;;;24.52;20.27;;;6.40;99.90;;;;;;5062071;28;20226;-85
2023/12/17 09:33:42;;;;;;;23.65;21.13;;;6.50;99.90;;;;;;5060192;28;20084;-84
2023/12/17 09:36:13;;;;;;;30.70;22.95;;;6.50;99.90;;;;;;5046127;28;20033;-84
2023/12/17 09:38:42;;;;;;;26.08;20.75;;;6.50;99.90;;;;;;5032044;28;20419;-85
2023/12/17 09:41:10;;;;;;;55.67;49.70;;;6.50;99.90;;;;;;5063063;28;20040;-83
2023/12/17 09:43:38;;;;;;;38.50;29.92;;;6.60;99.90;;;;;;5035059;28;20022;-84
2023/12/17 09:46:06;;;;;;;27.98;18.73;;;6.60;99.90;;;;;;5061911;28;20017;-84
2023/12/17 09:48:35;;;;;;;51.10;29.77;;;6.50;99.90;;;;;;5051156;28;20032;-86
2023/12/17 09:51:05;;;;;;;28.38;21.88;;;6.50;99.90;;;;;;5059779;28;20037;-85
2023/12/17 09:53:34;;;;;;;25.60;18.63;;;6.60;99.90;;;;;;5032623;28;20028;-85
2023/12/17 09:56:00;;;;;;;20.83;16.90;;;6.60;99.90;;;;;;5043664;28;20032;-84
2023/12/17 09:58:26;;;;;;;26.27;23.50;;;6.60;99.90;;;;;;5058097;28;20070;-84
2023/12/17 10:00:53;;;;;;;31.65;23.52;;;6.60;99.90;;;;;;5056510;28;20017;-84
2023/12/17 10:03:20;;;;;;;31.80;23.98;;;6.60;99.90;;;;;;5059073;28;20048;-85
2023/12/17 10:05:53;;;;;;;21.40;18.80;;;6.60;99.90;;;;;;5062511;28;20005;-84
2023/12/17 10:08:19;;;;;;;23.05;17.63;;;6.50;99.90;;;;;;5043539;28;20029;-84
2023/12/17 10:10:46;;;;;;;20.40;16.45;;;6.60;99.90;;;;;;5053887;28;20041;-84
2023/12/17 10:13:21;;;;;;;22.85;17.88;;;6.60;99.90;;;;;;5056764;28;20040;-83
2023/12/17 10:15:54;;;;;;;25.77;18.92;;;6.60;99.90;;;;;;5046624;28;20040;-84
2023/12/17 10:18:23;;;;;;;23.52;17.13;;;6.70;99.90;;;;;;5063091;28;20067;-84
2023/12/17 10:20:51;;;;;;;24.98;16.23;;;7.00;99.90;;;;;;5059598;28;20036;-84
2023/12/17 10:23:22;;;;;;;18.45;15.82;;;6.80;99.90;;;;;;5045307;28;20037;-86
2023/12/17 10:26:00;;;;;;;25.55;17.35;;;6.90;99.90;;;;;;5062081;28;20013;-85
2023/12/17 10:28:30;;;;;;;24.58;17.30;;;6.90;99.90;;;;;;5050427;28;20310;-85
2023/12/17 10:31:03;;;;;;;19.55;14.82;;;7.00;99.90;;;;;;5043087;28;20074;-84
2023/12/17 10:33:41;;;;;;;22.30;18.73;;;7.00;99.90;;;;;;5040727;28;20025;-84
2023/12/17 10:36:15;;;;;;;22.20;19.15;;;7.00;99.90;;;;;;5051885;28;20025;-84
2023/12/17 10:38:49;;;;;;;18.95;13.80;;;7.00;99.90;;;;;;5059665;28;20139;-83
2023/12/17 10:41:23;;;;;;;18.70;14.57;;;7.10;99.90;;;;;;5001185;28;20033;-82
2023/12/17 10:43:58;;;;;;;17.60;15.23;;;7.10;99.90;;;;;;5043422;28;20030;-82
2023/12/17 10:46:33;;;;;;;21.50;16.30;;;7.10;99.90;;;;;;5027150;28;20036;-84
2023/12/17 10:49:08;;;;;;;20.52;13.90;;;7.10;99.90;;;;;;5043725;28;20053;-84
2023/12/17 10:51:42;;;;;;;21.23;14.90;;;7.20;99.90;;;;;;5041831;28;20045;-83
2023/12/17 10:54:08;;;;;;;29.58;13.52;;;7.30;99.90;;;;;;5042163;28;20329;-82
2023/12/17 10:56:45;;;;;;;20.77;15.02;;;7.50;99.90;;;;;;5025605;28;20017;-82
2023/12/17 10:59:14;;;;;;;29.48;22.23;;;7.50;99.90;;;;;;5044351;28;20036;-84
2023/12/17 11:01:41;;;;;;;63.95;37.28;;;7.50;99.90;;;;;;5058772;28;20027;-84
2023/12/17 11:04:08;;;;;;;31.80;20.80;;;7.70;99.90;;;;;;5045180;28;20029;-83
2023/12/17 11:06:34;;;;;;;24.08;18.67;;;7.60;99.90;;;;;;5046225;28;20269;-83
2023/12/17 11:09:00;;;;;;;25.65;18.92;;;7.70;99.90;;;;;;5047506;28;20210;-85
2023/12/17 11:11:26;;;;;;;18.88;14.52;;;7.90;99.90;;;;;;5059919;28;20029;-83
2023/12/17 11:13:53;;;;;;;35.80;21.90;;;7.90;99.90;;;;;;5060622;28;20100;-85
2023/12/17 11:16:20;;;;;;;20.58;14.43;;;8.00;99.90;;;;;;5051319;28;20009;-83
2023/12/17 11:18:46;;;;;;;24.92;18.17;;;7.90;99.90;;;;;;5043101;28;20022;-84
2023/12/17 11:21:13;;;;;;;58.63;42.17;;;7.90;99.90;;;;;;5060734;28;20036;-83
2023/12/17 11:23:39;;;;;;;25.85;15.45;;;7.80;99.90;;;;;;5056229;28;20036;-85
2023/12/17 11:26:08;;;;;;;62.25;41.83;;;7.90;99.90;;;;;;5043094;28;20021;-84
2023/12/17 11:28:34;;;;;;;22.85;20.17;;;7.90;99.90;;;;;;5049234;28;20044;-84
2023/12/17 11:31:01;;;;;;;19.13;16.35;;;7.90;99.90;;;;;;5055357;28;20359;-84
2023/12/17 11:33:28;;;;;;;27.35;14.70;;;8.00;99.90;;;;;;5061784;28;20025;-84
2023/12/17 11:35:54;;;;;;;25.73;15.88;;;8.10;99.90;;;;;;5047188;28;20091;-86
2023/12/17 11:38:21;;;;;;;34.25;25.15;;;8.20;99.90;;;;;;5061324;28;20035;-84
2023/12/17 11:40:47;;;;;;;15.38;12.02;;;8.10;99.90;;;;;;5070856;28;20067;-86
2023/12/17 11:43:12;;;;;;;24.00;17.58;;;8.20;99.90;;;;;;5045331;28;20327;-83
2023/12/17 11:45:47;;;;;;;26.25;19.48;;;8.30;99.90;;;;;;5043725;28;20357;-84
2023/12/17 11:48:15;;;;;;;23.75;11.90;;;8.40;99.90;;;;;;5045030;28;20271;-83
2023/12/17 11:50:49;;;;;;;16.98;11.88;;;8.30;99.90;;;;;;5054896;28;20221;-83
2023/12/17 11:53:16;;;;;;;22.75;12.57;;;8.30;99.90;;;;;;5060419;28;20334;-82
2023/12/17 11:55:49;;;;;;;17.73;10.38;;;8.40;99.90;;;;;;5055141;28;20019;-83
2023/12/17 11:58:17;;;;;;;23.15;14.95;;;8.40;99.90;;;;;;5052456;28;20036;-83
2023/12/17 12:01:09;;;;;;;22.25;12.65;;;8.50;99.90;;;;;;5057680;28;20044;-83
2023/12/17 12:03:36;;;;;;;10.15;9.15;;;8.60;99.90;;;;;;5052288;28;20102;-84
2023/12/17 12:06:09;;;;;;;16.25;11.52;;;8.80;99.90;;;;;;5055258;28;20076;-83
2023/12/17 12:08:45;;;;;;;12.93;11.05;;;8.80;99.90;;;;;;5054204;28;20047;-83
2023/12/17 12:11:16;;;;;;;20.58;11.13;;;8.80;99.90;;;;;;5058185;28;20082;-83
2023/12/17 12:13:48;;;;;;;30.58;11.88;;;8.90;99.90;;;;;;5057753;28;20139;-83
2023/12/17 12:16:14;;;;;;;30.67;18.63;;;9.30;99.90;;;;;;5041437;28;20076;-84
2023/12/17 12:18:43;;;;;;;22.13;11.50;;;9.40;99.90;;;;;;5041381;28;20021;-83
2023/12/17 12:21:21;;;;;;;18.98;10.10;;;9.60;99.90;;;;;;5047791;28;20022;-83
2023/12/17 12:23:54;;;;;;;27.42;21.65;;;9.90;99.90;;;;;;5048918;28;20026;-82
2023/12/17 12:26:25;;;;;;;20.92;14.40;;;10.30;99.90;;;;;;5033131;28;20025;-83
2023/12/17 12:28:57;;;;;;;18.02;10.80;;;10.60;99.90;;;;;;5052004;28;20052;-84
2023/12/17 12:31:27;;;;;;;12.25;9.52;;;10.70;99.90;;;;;;5052524;28;20096;-83
2023/12/17 12:33:55;;;;;;;37.60;28.88;;;10.60;99.90;;;;;;5032308;28;20029;-83
2023/12/17 12:36:21;;;;;;;17.25;9.98;;;10.80;99.90;;;;;;5061734;28;20072;-84
2023/12/17 12:38:59;;;;;;;14.07;12.40;;;10.90;99.90;;;;;;5063897;28;20252;-84
2023/12/17 12:41:25;;;;;;;14.13;6.88;;;10.80;99.90;;;;;;5063855;28;20314;-84
2023/12/17 12:43:53;;;;;;;13.43;8.95;;;10.70;99.90;;;;;;5062546;28;20021;-84